Terminal Aerodrome Forecast
Issued by NWS Amarillo, TX

Home | Current Version | Previous Version | Text Only | Print | Product List | Glossary On
Versions: 1 2 3 4 5 6 7 8 9 10 11 12
571
FTUS44 KAMA 120520
TAFGUY
TAF
KGUY 120520Z 1206/1306 36010KT P6SM FEW250
     FM121800 05009KT P6SM SCT250
     FM122200 11010KT P6SM SCT250=

USA.gov is the U.S. government's official web portal to all federal, state and local government web resources and services.